sensor_id;sensor_type;location;lat;lon;timestamp;P1;durP1;ratioP1;P2;durP2;ratioP2
23728;SDS011;12045;60.214;24.724;2024-03-22T00:02:13;15.15;;;3.88;;
23728;SDS011;12045;60.214;24.724;2024-03-22T00:04:40;21.33;;;4.45;;
23728;SDS011;12045;60.214;24.724;2024-03-22T00:07:06;12.70;;;4.13;;
23728;SDS011;12045;60.214;24.724;2024-03-22T00:09:33;12.77;;;4.30;;
23728;SDS011;12045;60.214;24.724;2024-03-22T00:12:02;11.18;;;3.85;;
23728;SDS011;12045;60.214;24.724;2024-03-22T00:14:30;13.57;;;4.32;;
23728;SDS011;12045;60.214;24.724;2024-03-22T00:16:56;16.73;;;4.28;;
23728;SDS011;12045;60.214;24.724;2024-03-22T00:19:22;8.18;;;3.83;;
23728;SDS011;12045;60.214;24.724;2024-03-22T00:21:50;12.82;;;4.45;;
23728;SDS011;12045;60.214;24.724;2024-03-22T00:24:17;10.55;;;4.63;;
23728;SDS011;12045;60.214;24.724;2024-03-22T00:26:44;11.68;;;4.38;;
23728;SDS011;12045;60.214;24.724;2024-03-22T00:29:11;11.18;;;3.90;;
23728;SDS011;12045;60.214;24.724;2024-03-22T00:31:37;10.65;;;4.55;;
23728;SDS011;12045;60.214;24.724;2024-03-22T00:34:04;8.85;;;4.00;;
23728;SDS011;12045;60.214;24.724;2024-03-22T00:36:30;9.40;;;4.22;;
23728;SDS011;12045;60.214;24.724;2024-03-22T00:38:57;8.65;;;3.90;;
23728;SDS011;12045;60.214;24.724;2024-03-22T00:41:23;7.55;;;3.80;;
23728;SDS011;12045;60.214;24.724;2024-03-22T00:43:50;10.68;;;3.85;;
23728;SDS011;12045;60.214;24.724;2024-03-22T00:46:16;8.20;;;3.60;;
23728;SDS011;12045;60.214;24.724;2024-03-22T00:48:44;5.93;;;3.28;;
23728;SDS011;12045;60.214;24.724;2024-03-22T00:51:10;6.38;;;3.38;;
23728;SDS011;12045;60.214;24.724;2024-03-22T00:53:36;5.88;;;2.25;;
23728;SDS011;12045;60.214;24.724;2024-03-22T00:56:03;6.78;;;3.35;;
23728;SDS011;12045;60.214;24.724;2024-03-22T00:58:30;8.07;;;3.63;;
23728;SDS011;12045;60.214;24.724;2024-03-22T01:00:57;6.55;;;2.92;;
23728;SDS011;12045;60.214;24.724;2024-03-22T01:03:23;10.70;;;3.80;;
23728;SDS011;12045;60.214;24.724;2024-03-22T01:05:50;8.60;;;3.78;;
23728;SDS011;12045;60.214;24.724;2024-03-22T01:08:16;8.30;;;3.42;;
23728;SDS011;12045;60.214;24.724;2024-03-22T01:10:43;9.15;;;3.63;;
23728;SDS011;12045;60.214;24.724;2024-03-22T01:13:09;6.15;;;3.30;;
23728;SDS011;12045;60.214;24.724;2024-03-22T01:15:36;8.50;;;4.07;;
23728;SDS011;12045;60.214;24.724;2024-03-22T01:18:02;9.65;;;3.95;;
23728;SDS011;12045;60.214;24.724;2024-03-22T01:20:29;7.18;;;3.70;;
23728;SDS011;12045;60.214;24.724;2024-03-22T01:22:56;8.52;;;3.75;;
23728;SDS011;12045;60.214;24.724;2024-03-22T01:25:22;9.27;;;4.03;;
23728;SDS011;12045;60.214;24.724;2024-03-22T01:27:48;8.98;;;3.78;;
23728;SDS011;12045;60.214;24.724;2024-03-22T01:30:15;5.97;;;3.58;;
23728;SDS011;12045;60.214;24.724;2024-03-22T01:32:41;9.18;;;4.18;;
23728;SDS011;12045;60.214;24.724;2024-03-22T01:35:08;7.40;;;4.00;;
23728;SDS011;12045;60.214;24.724;2024-03-22T01:37:34;7.53;;;3.67;;
23728;SDS011;12045;60.214;24.724;2024-03-22T01:40:01;7.65;;;3.83;;
23728;SDS011;12045;60.214;24.724;2024-03-22T01:42:28;6.95;;;3.72;;
23728;SDS011;12045;60.214;24.724;2024-03-22T01:44:55;10.88;;;3.92;;
23728;SDS011;12045;60.214;24.724;2024-03-22T01:47:21;8.53;;;3.90;;
23728;SDS011;12045;60.214;24.724;2024-03-22T01:49:48;10.45;;;3.85;;
23728;SDS011;12045;60.214;24.724;2024-03-22T01:52:18;7.47;;;3.67;;
23728;SDS011;12045;60.214;24.724;2024-03-22T01:54:45;8.20;;;3.50;;
23728;SDS011;12045;60.214;24.724;2024-03-22T01:57:12;8.13;;;4.03;;
23728;SDS011;12045;60.214;24.724;2024-03-22T01:59:38;8.55;;;3.53;;
23728;SDS011;12045;60.214;24.724;2024-03-22T02:02:06;7.07;;;3.17;;
23728;SDS011;12045;60.214;24.724;2024-03-22T02:04:33;6.30;;;3.33;;
23728;SDS011;12045;60.214;24.724;2024-03-22T02:07:01;7.50;;;3.83;;
23728;SDS011;12045;60.214;24.724;2024-03-22T02:09:28;7.63;;;3.43;;
23728;SDS011;12045;60.214;24.724;2024-03-22T02:11:55;9.57;;;3.28;;
23728;SDS011;12045;60.214;24.724;2024-03-22T02:14:21;8.07;;;3.50;;
23728;SDS011;12045;60.214;24.724;2024-03-22T02:16:47;7.38;;;3.33;;
23728;SDS011;12045;60.214;24.724;2024-03-22T02:19:14;7.38;;;3.33;;
23728;SDS011;12045;60.214;24.724;2024-03-22T02:21:40;9.90;;;3.28;;
23728;SDS011;12045;60.214;24.724;2024-03-22T02:24:07;7.82;;;3.13;;
23728;SDS011;12045;60.214;24.724;2024-03-22T02:26:34;5.93;;;2.80;;
23728;SDS011;12045;60.214;24.724;2024-03-22T02:29:02;6.63;;;3.53;;
23728;SDS011;12045;60.214;24.724;2024-03-22T02:31:28;7.90;;;3.45;;
23728;SDS011;12045;60.214;24.724;2024-03-22T02:33:55;8.35;;;3.72;;
23728;SDS011;12045;60.214;24.724;2024-03-22T02:36:21;7.50;;;3.60;;
23728;SDS011;12045;60.214;24.724;2024-03-22T02:38:48;6.15;;;2.85;;
23728;SDS011;12045;60.214;24.724;2024-03-22T02:41:15;5.27;;;2.77;;
23728;SDS011;12045;60.214;24.724;2024-03-22T02:43:41;6.55;;;2.80;;
23728;SDS011;12045;60.214;24.724;2024-03-22T02:46:08;7.18;;;2.85;;
23728;SDS011;12045;60.214;24.724;2024-03-22T02:48:34;6.60;;;2.95;;
23728;SDS011;12045;60.214;24.724;2024-03-22T02:51:01;6.55;;;2.97;;
23728;SDS011;12045;60.214;24.724;2024-03-22T02:53:27;4.07;;;2.25;;
23728;SDS011;12045;60.214;24.724;2024-03-22T02:55:54;4.05;;;2.42;;
23728;SDS011;12045;60.214;24.724;2024-03-22T02:58:20;3.97;;;1.98;;
23728;SDS011;12045;60.214;24.724;2024-03-22T03:00:47;4.67;;;2.53;;
23728;SDS011;12045;60.214;24.724;2024-03-22T03:03:15;4.73;;;2.70;;
23728;SDS011;12045;60.214;24.724;2024-03-22T03:05:42;4.47;;;2.28;;
23728;SDS011;12045;60.214;24.724;2024-03-22T03:08:09;4.30;;;2.30;;
23728;SDS011;12045;60.214;24.724;2024-03-22T03:10:36;5.60;;;2.50;;
23728;SDS011;12045;60.214;24.724;2024-03-22T03:13:04;5.40;;;2.50;;
23728;SDS011;12045;60.214;24.724;2024-03-22T03:15:30;4.70;;;2.33;;
23728;SDS011;12045;60.214;24.724;2024-03-22T03:17:57;4.88;;;2.60;;
23728;SDS011;12045;60.214;24.724;2024-03-22T03:20:24;5.00;;;2.80;;
23728;SDS011;12045;60.214;24.724;2024-03-22T03:22:51;5.72;;;2.72;;
23728;SDS011;12045;60.214;24.724;2024-03-22T03:25:17;5.22;;;2.60;;
23728;SDS011;12045;60.214;24.724;2024-03-22T03:27:44;5.18;;;2.70;;
23728;SDS011;12045;60.214;24.724;2024-03-22T03:30:10;6.13;;;2.75;;
23728;SDS011;12045;60.214;24.724;2024-03-22T03:32:37;4.45;;;2.30;;
23728;SDS011;12045;60.214;24.724;2024-03-22T03:35:03;5.28;;;2.78;;
23728;SDS011;12045;60.214;24.724;2024-03-22T03:37:31;4.47;;;2.30;;
23728;SDS011;12045;60.214;24.724;2024-03-22T03:39:57;4.30;;;2.43;;
23728;SDS011;12045;60.214;24.724;2024-03-22T03:42:23;4.70;;;2.53;;
23728;SDS011;12045;60.214;24.724;2024-03-22T03:44:50;5.43;;;2.85;;
23728;SDS011;12045;60.214;24.724;2024-03-22T03:47:16;3.95;;;2.28;;
23728;SDS011;12045;60.214;24.724;2024-03-22T03:49:44;4.50;;;2.22;;
23728;SDS011;12045;60.214;24.724;2024-03-22T03:52:14;4.95;;;2.60;;
23728;SDS011;12045;60.214;24.724;2024-03-22T03:54:41;4.50;;;2.53;;
23728;SDS011;12045;60.214;24.724;2024-03-22T03:57:08;7.00;;;2.67;;
23728;SDS011;12045;60.214;24.724;2024-03-22T03:59:34;4.65;;;2.80;;
23728;SDS011;12045;60.214;24.724;2024-03-22T04:02:01;6.95;;;3.13;;
23728;SDS011;12045;60.214;24.724;2024-03-22T04:04:27;4.60;;;2.43;;
23728;SDS011;12045;60.214;24.724;2024-03-22T04:06:54;5.15;;;2.80;;
23728;SDS011;12045;60.214;24.724;2024-03-22T04:09:20;5.17;;;2.37;;
23728;SDS011;12045;60.214;24.724;2024-03-22T04:11:46;5.43;;;2.47;;
23728;SDS011;12045;60.214;24.724;2024-03-22T04:14:14;3.75;;;1.98;;
23728;SDS011;12045;60.214;24.724;2024-03-22T04:16:40;4.45;;;2.50;;
23728;SDS011;12045;60.214;24.724;2024-03-22T04:19:07;4.90;;;2.42;;
23728;SDS011;12045;60.214;24.724;2024-03-22T04:21:34;5.25;;;2.47;;
23728;SDS011;12045;60.214;24.724;2024-03-22T04:24:01;6.05;;;1.85;;
23728;SDS011;12045;60.214;24.724;2024-03-22T04:26:30;3.87;;;2.20;;
23728;SDS011;12045;60.214;24.724;2024-03-22T04:28:56;3.87;;;2.10;;
23728;SDS011;12045;60.214;24.724;2024-03-22T04:31:22;6.40;;;2.20;;
23728;SDS011;12045;60.214;24.724;2024-03-22T04:33:49;3.80;;;2.30;;
23728;SDS011;12045;60.214;24.724;2024-03-22T04:36:16;4.28;;;2.42;;
23728;SDS011;12045;60.214;24.724;2024-03-22T04:38:43;4.80;;;1.85;;
23728;SDS011;12045;60.214;24.724;2024-03-22T04:41:10;4.17;;;1.87;;
23728;SDS011;12045;60.214;24.724;2024-03-22T04:43:37;4.67;;;2.30;;
23728;SDS011;12045;60.214;24.724;2024-03-22T04:46:03;4.77;;;2.50;;
23728;SDS011;12045;60.214;24.724;2024-03-22T04:48:30;6.20;;;2.30;;
23728;SDS011;12045;60.214;24.724;2024-03-22T04:50:57;11.13;;;2.90;;
23728;SDS011;12045;60.214;24.724;2024-03-22T04:53:23;7.53;;;2.70;;
23728;SDS011;12045;60.214;24.724;2024-03-22T04:55:50;5.32;;;2.67;;
23728;SDS011;12045;60.214;24.724;2024-03-22T04:58:17;11.02;;;3.05;;
23728;SDS011;12045;60.214;24.724;2024-03-22T05:00:45;6.15;;;3.05;;
23728;SDS011;12045;60.214;24.724;2024-03-22T05:03:16;6.07;;;2.77;;
23728;SDS011;12045;60.214;24.724;2024-03-22T05:05:42;4.23;;;2.43;;
23728;SDS011;12045;60.214;24.724;2024-03-22T05:08:09;9.63;;;2.78;;
23728;SDS011;12045;60.214;24.724;2024-03-22T05:10:35;5.00;;;2.58;;
23728;SDS011;12045;60.214;24.724;2024-03-22T05:13:02;5.18;;;2.53;;
23728;SDS011;12045;60.214;24.724;2024-03-22T05:15:29;10.25;;;2.88;;
23728;SDS011;12045;60.214;24.724;2024-03-22T05:17:56;9.77;;;2.05;;
23728;SDS011;12045;60.214;24.724;2024-03-22T05:20:25;7.32;;;2.22;;
23728;SDS011;12045;60.214;24.724;2024-03-22T05:22:52;6.77;;;2.80;;
23728;SDS011;12045;60.214;24.724;2024-03-22T05:25:19;9.38;;;2.55;;
23728;SDS011;12045;60.214;24.724;2024-03-22T05:27:47;7.93;;;2.77;;
23728;SDS011;12045;60.214;24.724;2024-03-22T05:30:14;6.23;;;2.90;;
23728;SDS011;12045;60.214;24.724;2024-03-22T05:32:40;5.23;;;2.67;;
23728;SDS011;12045;60.214;24.724;2024-03-22T05:35:08;11.03;;;3.03;;
23728;SDS011;12045;60.214;24.724;2024-03-22T05:37:35;5.10;;;1.77;;
23728;SDS011;12045;60.214;24.724;2024-03-22T05:40:02;9.93;;;2.10;;
23728;SDS011;12045;60.214;24.724;2024-03-22T05:42:32;5.73;;;2.90;;
23728;SDS011;12045;60.214;24.724;2024-03-22T05:44:59;8.43;;;2.47;;
23728;SDS011;12045;60.214;24.724;2024-03-22T05:47:25;12.53;;;1.97;;
23728;SDS011;12045;60.214;24.724;2024-03-22T05:49:52;11.53;;;2.60;;
23728;SDS011;12045;60.214;24.724;2024-03-22T05:52:20;8.83;;;1.83;;
23728;SDS011;12045;60.214;24.724;2024-03-22T05:54:46;8.57;;;2.37;;
23728;SDS011;12045;60.214;24.724;2024-03-22T05:57:13;4.27;;;2.00;;
23728;SDS011;12045;60.214;24.724;2024-03-22T05:59:39;11.60;;;2.27;;
23728;SDS011;12045;60.214;24.724;2024-03-22T06:02:06;11.33;;;2.37;;
23728;SDS011;12045;60.214;24.724;2024-03-22T06:04:35;94.07;;;6.07;;
23728;SDS011;12045;60.214;24.724;2024-03-22T06:07:02;7.87;;;1.93;;
23728;SDS011;12045;60.214;24.724;2024-03-22T06:09:30;26.73;;;2.90;;
23728;SDS011;12045;60.214;24.724;2024-03-22T06:12:13;5.10;;;2.30;;
23728;SDS011;12045;60.214;24.724;2024-03-22T06:14:41;19.05;;;2.63;;
23728;SDS011;12045;60.214;24.724;2024-03-22T06:17:10;7.30;;;2.50;;
23728;SDS011;12045;60.214;24.724;2024-03-22T06:19:38;3.50;;;2.17;;
23728;SDS011;12045;60.214;24.724;2024-03-22T06:22:05;3.70;;;2.00;;
23728;SDS011;12045;60.214;24.724;2024-03-22T06:24:33;5.70;;;2.23;;
23728;SDS011;12045;60.214;24.724;2024-03-22T06:27:00;14.03;;;2.23;;
23728;SDS011;12045;60.214;24.724;2024-03-22T06:29:26;3.47;;;1.53;;
23728;SDS011;12045;60.214;24.724;2024-03-22T06:31:53;8.03;;;2.07;;
23728;SDS011;12045;60.214;24.724;2024-03-22T06:34:19;10.00;;;2.20;;
23728;SDS011;12045;60.214;24.724;2024-03-22T06:36:46;6.17;;;1.87;;
23728;SDS011;12045;60.214;24.724;2024-03-22T06:39:14;6.50;;;2.00;;
23728;SDS011;12045;60.214;24.724;2024-03-22T06:41:40;9.43;;;2.50;;
23728;SDS011;12045;60.214;24.724;2024-03-22T06:44:08;4.33;;;2.27;;
23728;SDS011;12045;60.214;24.724;2024-03-22T06:46:38;4.13;;;1.90;;
23728;SDS011;12045;60.214;24.724;2024-03-22T06:49:05;2.88;;;1.75;;
23728;SDS011;12045;60.214;24.724;2024-03-22T06:51:32;7.57;;;2.50;;
23728;SDS011;12045;60.214;24.724;2024-03-22T06:53:59;2.40;;;1.55;;
23728;SDS011;12045;60.214;24.724;2024-03-22T06:56:26;5.43;;;2.40;;
23728;SDS011;12045;60.214;24.724;2024-03-22T06:58:52;5.20;;;2.10;;
23728;SDS011;12045;60.214;24.724;2024-03-22T07:01:20;4.57;;;2.03;;
23728;SDS011;12045;60.214;24.724;2024-03-22T07:03:47;6.80;;;2.20;;
23728;SDS011;12045;60.214;24.724;2024-03-22T07:06:14;5.80;;;2.25;;
23728;SDS011;12045;60.214;24.724;2024-03-22T07:08:41;7.43;;;2.50;;
23728;SDS011;12045;60.214;24.724;2024-03-22T07:11:07;3.80;;;2.37;;
23728;SDS011;12045;60.214;24.724;2024-03-22T07:13:37;1.37;;;0.70;;
23728;SDS011;12045;60.214;24.724;2024-03-22T07:16:04;7.43;;;2.53;;
23728;SDS011;12045;60.214;24.724;2024-03-22T07:18:31;4.90;;;2.30;;
23728;SDS011;12045;60.214;24.724;2024-03-22T07:20:57;3.78;;;1.83;;
23728;SDS011;12045;60.214;24.724;2024-03-22T07:23:27;6.30;;;2.40;;
23728;SDS011;12045;60.214;24.724;2024-03-22T07:25:54;4.07;;;2.25;;
23728;SDS011;12045;60.214;24.724;2024-03-22T07:28:20;6.65;;;2.40;;
23728;SDS011;12045;60.214;24.724;2024-03-22T07:30:47;17.50;;;2.65;;
23728;SDS011;12045;60.214;24.724;2024-03-22T07:33:14;4.97;;;1.30;;
23728;SDS011;12045;60.214;24.724;2024-03-22T07:35:45;5.87;;;2.77;;
23728;SDS011;12045;60.214;24.724;2024-03-22T07:38:12;6.70;;;1.90;;
23728;SDS011;12045;60.214;24.724;2024-03-22T07:40:42;14.70;;;1.83;;
23728;SDS011;12045;60.214;24.724;2024-03-22T07:43:09;8.40;;;2.45;;
23728;SDS011;12045;60.214;24.724;2024-03-22T07:45:36;7.35;;;2.40;;
23728;SDS011;12045;60.214;24.724;2024-03-22T07:48:03;24.88;;;3.45;;
23728;SDS011;12045;60.214;24.724;2024-03-22T07:50:30;8.05;;;2.50;;
23728;SDS011;12045;60.214;24.724;2024-03-22T07:52:57;13.07;;;2.28;;
23728;SDS011;12045;60.214;24.724;2024-03-22T07:55:27;22.35;;;3.40;;
23728;SDS011;12045;60.214;24.724;2024-03-22T07:57:53;9.27;;;2.77;;
23728;SDS011;12045;60.214;24.724;2024-03-22T08:00:20;16.70;;;2.83;;
23728;SDS011;12045;60.214;24.724;2024-03-22T08:02:46;37.23;;;4.07;;
23728;SDS011;12045;60.214;24.724;2024-03-22T08:05:14;15.17;;;3.10;;
23728;SDS011;12045;60.214;24.724;2024-03-22T08:07:41;15.77;;;2.57;;
23728;SDS011;12045;60.214;24.724;2024-03-22T08:10:09;32.45;;;3.47;;
23728;SDS011;12045;60.214;24.724;2024-03-22T08:12:36;17.10;;;2.83;;
23728;SDS011;12045;60.214;24.724;2024-03-22T08:15:02;44.80;;;3.90;;
23728;SDS011;12045;60.214;24.724;2024-03-22T08:17:30;66.50;;;5.07;;
23728;SDS011;12045;60.214;24.724;2024-03-22T08:19:56;6.78;;;2.40;;
23728;SDS011;12045;60.214;24.724;2024-03-22T08:22:23;55.87;;;3.93;;
23728;SDS011;12045;60.214;24.724;2024-03-22T08:24:50;27.27;;;4.33;;
23728;SDS011;12045;60.214;24.724;2024-03-22T08:27:17;34.80;;;4.27;;
23728;SDS011;12045;60.214;24.724;2024-03-22T08:29:44;8.77;;;3.33;;
23728;SDS011;12045;60.214;24.724;2024-03-22T08:32:12;4.67;;;2.13;;
23728;SDS011;12045;60.214;24.724;2024-03-22T08:34:39;7.77;;;2.67;;
23728;SDS011;12045;60.214;24.724;2024-03-22T08:37:05;6.78;;;2.92;;
23728;SDS011;12045;60.214;24.724;2024-03-22T08:39:35;9.98;;;3.30;;
23728;SDS011;12045;60.214;24.724;2024-03-22T08:42:01;5.97;;;3.03;;
23728;SDS011;12045;60.214;24.724;2024-03-22T08:44:30;5.70;;;2.55;;
23728;SDS011;12045;60.214;24.724;2024-03-22T08:46:58;8.25;;;2.92;;
23728;SDS011;12045;60.214;24.724;2024-03-22T08:49:24;5.72;;;2.88;;
23728;SDS011;12045;60.214;24.724;2024-03-22T08:51:52;9.45;;;3.08;;
23728;SDS011;12045;60.214;24.724;2024-03-22T08:54:19;5.70;;;2.67;;
23728;SDS011;12045;60.214;24.724;2024-03-22T08:56:46;6.28;;;2.33;;
23728;SDS011;12045;60.214;24.724;2024-03-22T08:59:13;4.07;;;2.25;;
23728;SDS011;12045;60.214;24.724;2024-03-22T09:01:40;5.40;;;2.30;;
23728;SDS011;12045;60.214;24.724;2024-03-22T09:04:06;4.93;;;2.45;;
23728;SDS011;12045;60.214;24.724;2024-03-22T09:06:34;3.92;;;2.03;;
23728;SDS011;12045;60.214;24.724;2024-03-22T09:09:00;3.67;;;2.15;;
23728;SDS011;12045;60.214;24.724;2024-03-22T09:11:27;4.32;;;2.33;;
23728;SDS011;12045;60.214;24.724;2024-03-22T09:13:54;2.45;;;1.80;;
23728;SDS011;12045;60.214;24.724;2024-03-22T09:16:21;2.47;;;1.73;;
23728;SDS011;12045;60.214;24.724;2024-03-22T09:18:49;7.13;;;1.77;;
23728;SDS011;12045;60.214;24.724;2024-03-22T09:21:18;6.95;;;2.63;;
23728;SDS011;12045;60.214;24.724;2024-03-22T09:23:44;4.55;;;2.50;;
23728;SDS011;12045;60.214;24.724;2024-03-22T09:26:15;6.50;;;2.53;;
23728;SDS011;12045;60.214;24.724;2024-03-22T09:28:41;4.40;;;2.65;;
23728;SDS011;12045;60.214;24.724;2024-03-22T09:31:09;3.23;;;1.93;;
23728;SDS011;12045;60.214;24.724;2024-03-22T09:33:37;5.53;;;2.60;;
23728;SDS011;12045;60.214;24.724;2024-03-22T09:36:05;4.70;;;2.47;;
23728;SDS011;12045;60.214;24.724;2024-03-22T09:38:31;4.13;;;2.35;;
23728;SDS011;12045;60.214;24.724;2024-03-22T09:40:58;5.67;;;2.90;;
23728;SDS011;12045;60.214;24.724;2024-03-22T09:43:26;4.13;;;2.15;;
23728;SDS011;12045;60.214;24.724;2024-03-22T09:45:54;5.75;;;2.63;;
23728;SDS011;12045;60.214;24.724;2024-03-22T09:48:22;3.42;;;2.50;;
23728;SDS011;12045;60.214;24.724;2024-03-22T09:50:49;3.25;;;2.25;;
23728;SDS011;12045;60.214;24.724;2024-03-22T09:53:18;2.73;;;1.77;;
23728;SDS011;12045;60.214;24.724;2024-03-22T09:55:46;1.42;;;1.23;;
23728;SDS011;12045;60.214;24.724;2024-03-22T09:58:14;3.17;;;2.35;;
23728;SDS011;12045;60.214;24.724;2024-03-22T10:00:42;7.80;;;1.70;;
23728;SDS011;12045;60.214;24.724;2024-03-22T10:03:10;3.78;;;2.03;;
23728;SDS011;12045;60.214;24.724;2024-03-22T10:05:37;3.20;;;1.95;;
23728;SDS011;12045;60.214;24.724;2024-03-22T10:08:04;3.15;;;2.20;;
23728;SDS011;12045;60.214;24.724;2024-03-22T10:10:35;2.70;;;1.77;;
23728;SDS011;12045;60.214;24.724;2024-03-22T10:13:03;3.25;;;1.88;;
23728;SDS011;12045;60.214;24.724;2024-03-22T10:15:33;2.85;;;1.80;;
23728;SDS011;12045;60.214;24.724;2024-03-22T10:17:59;2.92;;;1.85;;
23728;SDS011;12045;60.214;24.724;2024-03-22T10:20:27;2.25;;;1.33;;
23728;SDS011;12045;60.214;24.724;2024-03-22T10:23:00;2.25;;;1.60;;
23728;SDS011;12045;60.214;24.724;2024-03-22T10:25:26;4.03;;;1.90;;
23728;SDS011;12045;60.214;24.724;2024-03-22T10:27:57;1.58;;;1.13;;
23728;SDS011;12045;60.214;24.724;2024-03-22T10:30:25;2.25;;;1.65;;
23728;SDS011;12045;60.214;24.724;2024-03-22T10:32:53;1.83;;;1.27;;
23728;SDS011;12045;60.214;24.724;2024-03-22T10:35:20;3.28;;;1.50;;
23728;SDS011;12045;60.214;24.724;2024-03-22T10:37:50;3.08;;;1.58;;
23728;SDS011;12045;60.214;24.724;2024-03-22T10:40:22;3.03;;;1.75;;
23728;SDS011;12045;60.214;24.724;2024-03-22T10:42:50;2.63;;;2.00;;
23728;SDS011;12045;60.214;24.724;2024-03-22T10:45:17;2.70;;;1.60;;
23728;SDS011;12045;60.214;24.724;2024-03-22T10:47:44;1.70;;;1.17;;
23728;SDS011;12045;60.214;24.724;2024-03-22T10:50:14;2.53;;;1.70;;
23728;SDS011;12045;60.214;24.724;2024-03-22T10:52:57;4.93;;;1.80;;
23728;SDS011;12045;60.214;24.724;2024-03-22T10:55:36;3.35;;;2.03;;
23728;SDS011;12045;60.214;24.724;2024-03-22T10:58:05;1.48;;;1.08;;
23728;SDS011;12045;60.214;24.724;2024-03-22T11:00:34;3.70;;;2.13;;
23728;SDS011;12045;60.214;24.724;2024-03-22T11:03:03;2.95;;;1.83;;
23728;SDS011;12045;60.214;24.724;2024-03-22T11:05:44;4.35;;;1.98;;
23728;SDS011;12045;60.214;24.724;2024-03-22T11:08:11;5.55;;;2.25;;
23728;SDS011;12045;60.214;24.724;2024-03-22T11:10:40;3.40;;;2.00;;
23728;SDS011;12045;60.214;24.724;2024-03-22T11:13:12;4.67;;;2.13;;
23728;SDS011;12045;60.214;24.724;2024-03-22T11:15:43;3.60;;;2.00;;
23728;SDS011;12045;60.214;24.724;2024-03-22T11:18:10;5.18;;;2.70;;
23728;SDS011;12045;60.214;24.724;2024-03-22T11:20:37;4.40;;;2.70;;
23728;SDS011;12045;60.214;24.724;2024-03-22T11:23:05;3.22;;;1.88;;
23728;SDS011;12045;60.214;24.724;2024-03-22T11:25:36;6.50;;;2.47;;
23728;SDS011;12045;60.214;24.724;2024-03-22T11:28:06;4.65;;;3.00;;
23728;SDS011;12045;60.214;24.724;2024-03-22T11:30:35;3.38;;;1.95;;
23728;SDS011;12045;60.214;24.724;2024-03-22T11:33:02;2.78;;;1.88;;
23728;SDS011;12045;60.214;24.724;2024-03-22T11:35:32;4.75;;;2.55;;
23728;SDS011;12045;60.214;24.724;2024-03-22T11:37:59;5.05;;;2.47;;
23728;SDS011;12045;60.214;24.724;2024-03-22T11:40:27;1.70;;;1.50;;
23728;SDS011;12045;60.214;24.724;2024-03-22T11:43:03;4.65;;;2.20;;
23728;SDS011;12045;60.214;24.724;2024-03-22T11:45:31;7.20;;;2.45;;
23728;SDS011;12045;60.214;24.724;2024-03-22T11:48:01;6.55;;;2.70;;
23728;SDS011;12045;60.214;24.724;2024-03-22T11:50:29;2.78;;;1.85;;
23728;SDS011;12045;60.214;24.724;2024-03-22T11:52:57;4.28;;;2.33;;
23728;SDS011;12045;60.214;24.724;2024-03-22T11:55:26;2.95;;;1.70;;
23728;SDS011;12045;60.214;24.724;2024-03-22T11:57:56;1.83;;;1.27;;
23728;SDS011;12045;60.214;24.724;2024-03-22T12:00:26;2.05;;;1.45;;
23728;SDS011;12045;60.214;24.724;2024-03-22T12:02:53;5.22;;;2.22;;
23728;SDS011;12045;60.214;24.724;2024-03-22T12:05:21;3.53;;;1.90;;
23728;SDS011;12045;60.214;24.724;2024-03-22T12:07:51;5.07;;;2.38;;
23728;SDS011;12045;60.214;24.724;2024-03-22T12:10:18;3.05;;;1.98;;
23728;SDS011;12045;60.214;24.724;2024-03-22T12:12:45;3.83;;;2.20;;
23728;SDS011;12045;60.214;24.724;2024-03-22T12:15:13;6.45;;;2.20;;
23728;SDS011;12045;60.214;24.724;2024-03-22T12:17:40;1.45;;;1.25;;
23728;SDS011;12045;60.214;24.724;2024-03-22T12:20:09;5.30;;;1.85;;
23728;SDS011;12045;60.214;24.724;2024-03-22T12:22:35;2.03;;;1.58;;
23728;SDS011;12045;60.214;24.724;2024-03-22T12:25:03;4.88;;;1.90;;
23728;SDS011;12045;60.214;24.724;2024-03-22T12:27:31;4.68;;;2.50;;
23728;SDS011;12045;60.214;24.724;2024-03-22T12:29:58;1.52;;;1.17;;
23728;SDS011;12045;60.214;24.724;2024-03-22T12:32:25;3.22;;;1.88;;
23728;SDS011;12045;60.214;24.724;2024-03-22T12:34:52;2.83;;;1.48;;
23728;SDS011;12045;60.214;24.724;2024-03-22T12:37:18;2.22;;;1.52;;
23728;SDS011;12045;60.214;24.724;2024-03-22T12:39:45;2.20;;;1.60;;
23728;SDS011;12045;60.214;24.724;2024-03-22T12:42:13;1.83;;;1.13;;
23728;SDS011;12045;60.214;24.724;2024-03-22T12:44:39;2.80;;;1.45;;
23728;SDS011;12045;60.214;24.724;2024-03-22T12:47:06;3.13;;;1.80;;
23728;SDS011;12045;60.214;24.724;2024-03-22T12:49:33;2.08;;;1.25;;
23728;SDS011;12045;60.214;24.724;2024-03-22T12:52:00;1.27;;;0.95;;
23728;SDS011;12045;60.214;24.724;2024-03-22T12:54:27;2.28;;;1.33;;
23728;SDS011;12045;60.214;24.724;2024-03-22T12:56:53;2.08;;;1.55;;
23728;SDS011;12045;60.214;24.724;2024-03-22T12:59:20;1.75;;;1.42;;
23728;SDS011;12045;60.214;24.724;2024-03-22T13:01:46;2.15;;;0.90;;
23728;SDS011;12045;60.214;24.724;2024-03-22T13:04:13;2.53;;;1.55;;
23728;SDS011;12045;60.214;24.724;2024-03-22T13:06:39;2.70;;;1.40;;
23728;SDS011;12045;60.214;24.724;2024-03-22T13:09:06;1.10;;;1.00;;
23728;SDS011;12045;60.214;24.724;2024-03-22T13:11:35;2.08;;;1.40;;
23728;SDS011;12045;60.214;24.724;2024-03-22T13:14:03;5.38;;;1.50;;
23728;SDS011;12045;60.214;24.724;2024-03-22T13:16:29;3.25;;;1.50;;
23728;SDS011;12045;60.214;24.724;2024-03-22T13:18:56;1.73;;;1.08;;
23728;SDS011;12045;60.214;24.724;2024-03-22T13:21:22;2.42;;;1.50;;
23728;SDS011;12045;60.214;24.724;2024-03-22T13:23:49;2.70;;;1.60;;
23728;SDS011;12045;60.214;24.724;2024-03-22T13:26:15;1.50;;;1.23;;
23728;SDS011;12045;60.214;24.724;2024-03-22T13:28:41;3.13;;;1.73;;
23728;SDS011;12045;60.214;24.724;2024-03-22T13:31:09;0.93;;;0.77;;
23728;SDS011;12045;60.214;24.724;2024-03-22T13:33:36;4.38;;;1.70;;
23728;SDS011;12045;60.214;24.724;2024-03-22T13:36:03;2.70;;;1.80;;
23728;SDS011;12045;60.214;24.724;2024-03-22T13:38:31;1.90;;;1.08;;
23728;SDS011;12045;60.214;24.724;2024-03-22T13:40:57;3.92;;;1.48;;
23728;SDS011;12045;60.214;24.724;2024-03-22T13:43:26;4.18;;;0.93;;
23728;SDS011;12045;60.214;24.724;2024-03-22T13:45:54;1.65;;;1.05;;
23728;SDS011;12045;60.214;24.724;2024-03-22T13:48:23;0.75;;;0.75;;
23728;SDS011;12045;60.214;24.724;2024-03-22T13:50:52;3.72;;;1.13;;
23728;SDS011;12045;60.214;24.724;2024-03-22T13:53:21;2.55;;;1.15;;
23728;SDS011;12045;60.214;24.724;2024-03-22T13:55:49;1.85;;;1.05;;
23728;SDS011;12045;60.214;24.724;2024-03-22T13:58:16;1.50;;;1.10;;
23728;SDS011;12045;60.214;24.724;2024-03-22T14:00:42;1.77;;;1.13;;
23728;SDS011;12045;60.214;24.724;2024-03-22T14:03:09;1.05;;;0.93;;
23728;SDS011;12045;60.214;24.724;2024-03-22T14:05:35;2.03;;;1.17;;
23728;SDS011;12045;60.214;24.724;2024-03-22T14:08:02;1.52;;;1.02;;
23728;SDS011;12045;60.214;24.724;2024-03-22T14:10:32;1.02;;;0.68;;
23728;SDS011;12045;60.214;24.724;2024-03-22T14:12:58;1.48;;;0.80;;
23728;SDS011;12045;60.214;24.724;2024-03-22T14:15:25;1.65;;;0.90;;
23728;SDS011;12045;60.214;24.724;2024-03-22T14:17:54;0.95;;;0.70;;
23728;SDS011;12045;60.214;24.724;2024-03-22T14:20:21;1.17;;;0.80;;
23728;SDS011;12045;60.214;24.724;2024-03-22T14:22:47;1.70;;;1.05;;
23728;SDS011;12045;60.214;24.724;2024-03-22T14:25:15;1.45;;;1.10;;
23728;SDS011;12045;60.214;24.724;2024-03-22T14:27:42;0.93;;;0.82;;
23728;SDS011;12045;60.214;24.724;2024-03-22T14:30:11;0.98;;;0.63;;
23728;SDS011;12045;60.214;24.724;2024-03-22T14:32:39;0.90;;;0.73;;
23728;SDS011;12045;60.214;24.724;2024-03-22T14:35:09;3.88;;;1.60;;